sensor_id;sensor_type;location;lat;lon;timestamp;P1;durP1;ratioP1;P2;durP2;ratioP2
19861;SDS011;10093;48.148;8.542;2023-05-27T00:01:26;13.35;;;7.40;;
19861;SDS011;10093;48.148;8.542;2023-05-27T00:03:52;19.33;;;8.07;;
19861;SDS011;10093;48.148;8.542;2023-05-27T00:06:17;10.60;;;7.13;;
19861;SDS011;10093;48.148;8.542;2023-05-27T00:08:43;14.90;;;8.02;;
19861;SDS011;10093;48.148;8.542;2023-05-27T00:11:08;13.63;;;7.65;;
19861;SDS011;10093;48.148;8.542;2023-05-27T00:13:34;10.63;;;7.70;;
19861;SDS011;10093;48.148;8.542;2023-05-27T00:16:00;13.48;;;7.95;;
19861;SDS011;10093;48.148;8.542;2023-05-27T00:18:25;11.88;;;7.78;;
19861;SDS011;10093;48.148;8.542;2023-05-27T00:20:51;11.63;;;7.40;;
19861;SDS011;10093;48.148;8.542;2023-05-27T00:23:17;17.23;;;7.47;;
19861;SDS011;10093;48.148;8.542;2023-05-27T00:25:42;16.00;;;7.95;;
19861;SDS011;10093;48.148;8.542;2023-05-27T00:28:08;14.18;;;7.80;;
19861;SDS011;10093;48.148;8.542;2023-05-27T00:30:34;18.95;;;7.80;;
19861;SDS011;10093;48.148;8.542;2023-05-27T00:33:00;10.27;;;7.03;;
19861;SDS011;10093;48.148;8.542;2023-05-27T00:35:25;14.10;;;8.13;;
19861;SDS011;10093;48.148;8.542;2023-05-27T00:37:51;10.73;;;7.75;;
19861;SDS011;10093;48.148;8.542;2023-05-27T00:40:19;11.98;;;7.80;;
19861;SDS011;10093;48.148;8.542;2023-05-27T00:42:47;12.18;;;7.75;;
19861;SDS011;10093;48.148;8.542;2023-05-27T00:45:13;13.48;;;7.72;;
19861;SDS011;10093;48.148;8.542;2023-05-27T00:47:39;12.25;;;8.20;;
19861;SDS011;10093;48.148;8.542;2023-05-27T00:50:05;12.50;;;7.25;;
19861;SDS011;10093;48.148;8.542;2023-05-27T00:52:32;11.68;;;7.38;;
19861;SDS011;10093;48.148;8.542;2023-05-27T00:54:58;11.90;;;7.68;;
19861;SDS011;10093;48.148;8.542;2023-05-27T00:57:24;12.40;;;8.00;;
19861;SDS011;10093;48.148;8.542;2023-05-27T00:59:51;11.93;;;7.78;;
19861;SDS011;10093;48.148;8.542;2023-05-27T01:02:17;14.07;;;7.53;;
19861;SDS011;10093;48.148;8.542;2023-05-27T01:04:42;13.07;;;7.75;;
19861;SDS011;10093;48.148;8.542;2023-05-27T01:07:21;10.18;;;7.72;;
19861;SDS011;10093;48.148;8.542;2023-05-27T01:09:56;18.27;;;8.55;;
19861;SDS011;10093;48.148;8.542;2023-05-27T01:12:35;13.27;;;7.82;;
19861;SDS011;10093;48.148;8.542;2023-05-27T01:15:09;15.23;;;8.57;;
19861;SDS011;10093;48.148;8.542;2023-05-27T01:17:35;16.88;;;8.60;;
19861;SDS011;10093;48.148;8.542;2023-05-27T01:20:07;13.98;;;8.65;;
19861;SDS011;10093;48.148;8.542;2023-05-27T01:22:35;18.30;;;8.52;;
19861;SDS011;10093;48.148;8.542;2023-05-27T01:25:01;14.50;;;8.32;;
19861;SDS011;10093;48.148;8.542;2023-05-27T01:27:27;18.35;;;9.27;;
19861;SDS011;10093;48.148;8.542;2023-05-27T01:29:53;12.77;;;8.70;;
19861;SDS011;10093;48.148;8.542;2023-05-27T01:32:27;16.55;;;8.98;;
19861;SDS011;10093;48.148;8.542;2023-05-27T01:35:21;15.80;;;9.23;;
19861;SDS011;10093;48.148;8.542;2023-05-27T01:37:52;16.08;;;9.32;;
19861;SDS011;10093;48.148;8.542;2023-05-27T01:40:19;15.52;;;8.90;;
19861;SDS011;10093;48.148;8.542;2023-05-27T01:42:45;15.50;;;8.40;;
19861;SDS011;10093;48.148;8.542;2023-05-27T01:45:12;15.05;;;8.85;;
19861;SDS011;10093;48.148;8.542;2023-05-27T01:47:37;13.73;;;7.80;;
19861;SDS011;10093;48.148;8.542;2023-05-27T01:50:03;14.30;;;9.07;;
19861;SDS011;10093;48.148;8.542;2023-05-27T01:52:30;14.85;;;8.77;;
19861;SDS011;10093;48.148;8.542;2023-05-27T01:54:56;16.08;;;9.02;;
19861;SDS011;10093;48.148;8.542;2023-05-27T01:57:23;15.45;;;8.70;;
19861;SDS011;10093;48.148;8.542;2023-05-27T01:59:50;15.55;;;9.07;;
19861;SDS011;10093;48.148;8.542;2023-05-27T02:02:15;15.43;;;9.10;;
19861;SDS011;10093;48.148;8.542;2023-05-27T02:04:41;14.57;;;9.48;;
19861;SDS011;10093;48.148;8.542;2023-05-27T02:07:06;18.83;;;9.25;;
19861;SDS011;10093;48.148;8.542;2023-05-27T02:09:32;13.00;;;8.90;;
19861;SDS011;10093;48.148;8.542;2023-05-27T02:11:57;15.38;;;8.82;;
19861;SDS011;10093;48.148;8.542;2023-05-27T02:14:23;16.90;;;9.00;;
19861;SDS011;10093;48.148;8.542;2023-05-27T02:16:49;17.23;;;9.77;;
19861;SDS011;10093;48.148;8.542;2023-05-27T02:19:15;18.63;;;9.77;;
19861;SDS011;10093;48.148;8.542;2023-05-27T02:21:41;16.20;;;9.70;;
19861;SDS011;10093;48.148;8.542;2023-05-27T02:24:06;16.40;;;9.25;;
19861;SDS011;10093;48.148;8.542;2023-05-27T02:26:32;17.38;;;9.55;;
19861;SDS011;10093;48.148;8.542;2023-05-27T02:28:58;14.88;;;9.20;;
19861;SDS011;10093;48.148;8.542;2023-05-27T02:31:24;19.40;;;9.23;;
19861;SDS011;10093;48.148;8.542;2023-05-27T02:33:49;17.83;;;9.18;;
19861;SDS011;10093;48.148;8.542;2023-05-27T02:36:15;17.30;;;10.00;;
19861;SDS011;10093;48.148;8.542;2023-05-27T02:38:41;18.58;;;10.27;;
19861;SDS011;10093;48.148;8.542;2023-05-27T02:41:06;15.07;;;9.40;;
19861;SDS011;10093;48.148;8.542;2023-05-27T02:43:32;19.02;;;9.27;;
19861;SDS011;10093;48.148;8.542;2023-05-27T02:45:57;13.32;;;8.90;;
19861;SDS011;10093;48.148;8.542;2023-05-27T02:48:23;23.98;;;10.73;;
19861;SDS011;10093;48.148;8.542;2023-05-27T02:50:48;18.88;;;9.27;;
19861;SDS011;10093;48.148;8.542;2023-05-27T02:53:14;15.23;;;9.65;;
19861;SDS011;10093;48.148;8.542;2023-05-27T02:55:40;18.35;;;9.77;;
19861;SDS011;10093;48.148;8.542;2023-05-27T02:58:05;15.48;;;9.90;;
19861;SDS011;10093;48.148;8.542;2023-05-27T03:00:32;15.95;;;9.35;;
19861;SDS011;10093;48.148;8.542;2023-05-27T03:02:58;18.80;;;9.75;;
19861;SDS011;10093;48.148;8.542;2023-05-27T03:05:24;15.45;;;9.50;;
19861;SDS011;10093;48.148;8.542;2023-05-27T03:07:50;16.40;;;9.73;;
19861;SDS011;10093;48.148;8.542;2023-05-27T03:10:15;17.85;;;9.82;;
19861;SDS011;10093;48.148;8.542;2023-05-27T03:12:41;16.80;;;9.77;;
19861;SDS011;10093;48.148;8.542;2023-05-27T03:15:07;19.13;;;9.60;;
19861;SDS011;10093;48.148;8.542;2023-05-27T03:17:36;20.10;;;10.18;;
19861;SDS011;10093;48.148;8.542;2023-05-27T03:20:02;18.10;;;10.38;;
19861;SDS011;10093;48.148;8.542;2023-05-27T03:22:30;19.75;;;10.43;;
19861;SDS011;10093;48.148;8.542;2023-05-27T03:24:56;20.52;;;11.27;;
19861;SDS011;10093;48.148;8.542;2023-05-27T03:27:22;18.15;;;10.20;;
19861;SDS011;10093;48.148;8.542;2023-05-27T03:29:48;19.48;;;9.80;;
19861;SDS011;10093;48.148;8.542;2023-05-27T03:32:13;15.85;;;9.70;;
19861;SDS011;10093;48.148;8.542;2023-05-27T03:34:39;16.73;;;9.80;;
19861;SDS011;10093;48.148;8.542;2023-05-27T03:37:05;20.20;;;11.07;;
19861;SDS011;10093;48.148;8.542;2023-05-27T03:39:30;17.45;;;11.18;;
19861;SDS011;10093;48.148;8.542;2023-05-27T03:41:56;19.05;;;10.40;;
19861;SDS011;10093;48.148;8.542;2023-05-27T03:44:22;31.52;;;11.30;;
19861;SDS011;10093;48.148;8.542;2023-05-27T03:46:48;19.20;;;10.70;;
19861;SDS011;10093;48.148;8.542;2023-05-27T03:49:13;20.75;;;10.82;;
19861;SDS011;10093;48.148;8.542;2023-05-27T03:51:39;21.08;;;10.90;;
19861;SDS011;10093;48.148;8.542;2023-05-27T03:54:05;15.98;;;9.65;;
19861;SDS011;10093;48.148;8.542;2023-05-27T03:56:31;16.20;;;9.77;;
19861;SDS011;10093;48.148;8.542;2023-05-27T03:58:56;16.45;;;9.50;;
19861;SDS011;10093;48.148;8.542;2023-05-27T04:01:22;14.25;;;9.27;;
19861;SDS011;10093;48.148;8.542;2023-05-27T04:03:48;21.42;;;10.15;;
19861;SDS011;10093;48.148;8.542;2023-05-27T04:06:14;13.45;;;9.07;;
19861;SDS011;10093;48.148;8.542;2023-05-27T04:08:40;14.57;;;9.55;;
19861;SDS011;10093;48.148;8.542;2023-05-27T04:11:06;16.65;;;9.93;;
19861;SDS011;10093;48.148;8.542;2023-05-27T04:13:34;17.83;;;9.98;;
19861;SDS011;10093;48.148;8.542;2023-05-27T04:16:00;17.65;;;9.70;;
19861;SDS011;10093;48.148;8.542;2023-05-27T04:18:26;16.75;;;9.15;;
19861;SDS011;10093;48.148;8.542;2023-05-27T04:20:51;14.25;;;8.55;;
19861;SDS011;10093;48.148;8.542;2023-05-27T04:23:17;13.88;;;9.25;;
19861;SDS011;10093;48.148;8.542;2023-05-27T04:25:43;18.58;;;9.15;;
19861;SDS011;10093;48.148;8.542;2023-05-27T04:28:09;16.23;;;8.50;;
19861;SDS011;10093;48.148;8.542;2023-05-27T04:30:35;13.93;;;8.50;;
19861;SDS011;10093;48.148;8.542;2023-05-27T04:33:01;18.67;;;8.43;;
19861;SDS011;10093;48.148;8.542;2023-05-27T04:35:28;13.52;;;7.75;;
19861;SDS011;10093;48.148;8.542;2023-05-27T04:37:56;13.57;;;7.72;;
19861;SDS011;10093;48.148;8.542;2023-05-27T04:40:24;13.45;;;7.75;;
19861;SDS011;10093;48.148;8.542;2023-05-27T04:42:50;14.60;;;7.82;;
19861;SDS011;10093;48.148;8.542;2023-05-27T04:45:15;12.95;;;7.32;;
19861;SDS011;10093;48.148;8.542;2023-05-27T04:47:41;13.20;;;7.05;;
19861;SDS011;10093;48.148;8.542;2023-05-27T04:50:08;15.73;;;7.38;;
19861;SDS011;10093;48.148;8.542;2023-05-27T04:52:34;12.50;;;7.55;;
19861;SDS011;10093;48.148;8.542;2023-05-27T04:55:07;12.43;;;7.10;;
19861;SDS011;10093;48.148;8.542;2023-05-27T04:57:34;11.90;;;7.03;;
19861;SDS011;10093;48.148;8.542;2023-05-27T05:00:01;13.15;;;7.32;;
19861;SDS011;10093;48.148;8.542;2023-05-27T05:02:30;12.95;;;6.68;;
19861;SDS011;10093;48.148;8.542;2023-05-27T05:05:03;12.02;;;6.55;;
19861;SDS011;10093;48.148;8.542;2023-05-27T05:07:29;8.20;;;5.78;;
19861;SDS011;10093;48.148;8.542;2023-05-27T05:09:56;12.90;;;5.40;;
19861;SDS011;10093;48.148;8.542;2023-05-27T05:12:22;11.15;;;5.22;;
19861;SDS011;10093;48.148;8.542;2023-05-27T05:14:48;10.38;;;5.70;;
19861;SDS011;10093;48.148;8.542;2023-05-27T05:17:15;9.60;;;5.30;;
19861;SDS011;10093;48.148;8.542;2023-05-27T05:19:41;8.30;;;5.00;;
19861;SDS011;10093;48.148;8.542;2023-05-27T05:22:07;14.48;;;5.82;;
19861;SDS011;10093;48.148;8.542;2023-05-27T05:24:32;11.98;;;4.20;;
19861;SDS011;10093;48.148;8.542;2023-05-27T05:26:58;8.43;;;5.13;;
19861;SDS011;10093;48.148;8.542;2023-05-27T05:29:24;12.68;;;5.28;;
19861;SDS011;10093;48.148;8.542;2023-05-27T05:31:49;11.05;;;4.50;;
19861;SDS011;10093;48.148;8.542;2023-05-27T05:34:15;12.05;;;5.05;;
19861;SDS011;10093;48.148;8.542;2023-05-27T05:36:40;11.60;;;4.72;;
19861;SDS011;10093;48.148;8.542;2023-05-27T05:39:07;9.57;;;4.25;;
19861;SDS011;10093;48.148;8.542;2023-05-27T05:41:33;7.43;;;4.28;;
19861;SDS011;10093;48.148;8.542;2023-05-27T05:43:58;9.15;;;4.10;;
19861;SDS011;10093;48.148;8.542;2023-05-27T05:46:24;6.38;;;3.78;;
19861;SDS011;10093;48.148;8.542;2023-05-27T05:48:52;11.77;;;4.13;;
19861;SDS011;10093;48.148;8.542;2023-05-27T05:51:18;7.82;;;3.67;;
19861;SDS011;10093;48.148;8.542;2023-05-27T05:53:44;9.93;;;4.28;;
19861;SDS011;10093;48.148;8.542;2023-05-27T05:56:10;10.98;;;3.67;;
19861;SDS011;10093;48.148;8.542;2023-05-27T05:58:35;8.15;;;3.90;;
19861;SDS011;10093;48.148;8.542;2023-05-27T06:01:01;9.73;;;4.07;;
19861;SDS011;10093;48.148;8.542;2023-05-27T06:03:27;6.50;;;3.15;;
19861;SDS011;10093;48.148;8.542;2023-05-27T06:05:53;10.80;;;3.63;;
19861;SDS011;10093;48.148;8.542;2023-05-27T06:08:19;5.03;;;3.10;;
19861;SDS011;10093;48.148;8.542;2023-05-27T06:10:44;7.60;;;3.53;;
19861;SDS011;10093;48.148;8.542;2023-05-27T06:13:10;8.90;;;2.92;;
19861;SDS011;10093;48.148;8.542;2023-05-27T06:15:36;10.10;;;3.65;;
19861;SDS011;10093;48.148;8.542;2023-05-27T06:18:02;11.65;;;3.65;;
19861;SDS011;10093;48.148;8.542;2023-05-27T06:20:28;10.18;;;3.28;;
19861;SDS011;10093;48.148;8.542;2023-05-27T06:22:54;10.30;;;4.05;;
19861;SDS011;10093;48.148;8.542;2023-05-27T06:25:20;9.00;;;3.30;;
19861;SDS011;10093;48.148;8.542;2023-05-27T06:27:46;11.40;;;3.40;;
19861;SDS011;10093;48.148;8.542;2023-05-27T06:30:11;7.85;;;2.80;;
19861;SDS011;10093;48.148;8.542;2023-05-27T06:32:37;9.50;;;3.38;;
19861;SDS011;10093;48.148;8.542;2023-05-27T06:35:03;10.00;;;3.15;;
19861;SDS011;10093;48.148;8.542;2023-05-27T06:37:29;10.27;;;4.13;;
19861;SDS011;10093;48.148;8.542;2023-05-27T06:39:54;8.82;;;3.05;;
19861;SDS011;10093;48.148;8.542;2023-05-27T06:42:20;10.85;;;3.05;;
19861;SDS011;10093;48.148;8.542;2023-05-27T06:44:47;9.13;;;3.67;;
19861;SDS011;10093;48.148;8.542;2023-05-27T06:47:13;9.23;;;3.80;;
19861;SDS011;10093;48.148;8.542;2023-05-27T06:49:39;7.03;;;3.17;;
19861;SDS011;10093;48.148;8.542;2023-05-27T06:52:05;10.55;;;4.25;;
19861;SDS011;10093;48.148;8.542;2023-05-27T06:54:31;12.43;;;3.75;;
19861;SDS011;10093;48.148;8.542;2023-05-27T06:56:57;14.07;;;3.88;;
19861;SDS011;10093;48.148;8.542;2023-05-27T06:59:22;9.13;;;3.75;;
19861;SDS011;10093;48.148;8.542;2023-05-27T07:01:48;8.75;;;3.33;;
19861;SDS011;10093;48.148;8.542;2023-05-27T07:04:15;9.02;;;4.00;;
19861;SDS011;10093;48.148;8.542;2023-05-27T07:06:41;7.10;;;4.07;;
19861;SDS011;10093;48.148;8.542;2023-05-27T07:09:08;8.00;;;3.33;;
19861;SDS011;10093;48.148;8.542;2023-05-27T07:11:33;9.27;;;3.80;;
19861;SDS011;10093;48.148;8.542;2023-05-27T07:13:59;11.35;;;4.32;;
19861;SDS011;10093;48.148;8.542;2023-05-27T07:16:25;12.35;;;4.05;;
19861;SDS011;10093;48.148;8.542;2023-05-27T07:18:51;8.90;;;3.17;;
19861;SDS011;10093;48.148;8.542;2023-05-27T07:21:16;7.97;;;3.10;;
19861;SDS011;10093;48.148;8.542;2023-05-27T07:23:42;11.23;;;3.47;;
19861;SDS011;10093;48.148;8.542;2023-05-27T07:26:08;8.70;;;3.60;;
19861;SDS011;10093;48.148;8.542;2023-05-27T07:28:33;10.98;;;3.88;;
19861;SDS011;10093;48.148;8.542;2023-05-27T07:30:59;10.60;;;3.83;;
19861;SDS011;10093;48.148;8.542;2023-05-27T07:33:25;11.18;;;4.43;;
19861;SDS011;10093;48.148;8.542;2023-05-27T07:35:50;12.63;;;4.22;;
19861;SDS011;10093;48.148;8.542;2023-05-27T07:38:16;12.23;;;4.68;;
19861;SDS011;10093;48.148;8.542;2023-05-27T07:40:42;14.75;;;4.63;;
19861;SDS011;10093;48.148;8.542;2023-05-27T07:43:07;16.88;;;4.70;;
19861;SDS011;10093;48.148;8.542;2023-05-27T07:45:33;19.75;;;4.45;;
19861;SDS011;10093;48.148;8.542;2023-05-27T07:47:59;11.70;;;3.97;;
19861;SDS011;10093;48.148;8.542;2023-05-27T07:50:24;11.23;;;4.22;;
19861;SDS011;10093;48.148;8.542;2023-05-27T07:52:50;11.25;;;3.72;;
19861;SDS011;10093;48.148;8.542;2023-05-27T07:55:16;9.45;;;3.72;;
19861;SDS011;10093;48.148;8.542;2023-05-27T07:57:41;12.82;;;5.10;;
19861;SDS011;10093;48.148;8.542;2023-05-27T08:00:08;9.52;;;3.83;;
19861;SDS011;10093;48.148;8.542;2023-05-27T08:02:34;14.65;;;4.05;;
19861;SDS011;10093;48.148;8.542;2023-05-27T08:05:01;17.10;;;4.75;;
19861;SDS011;10093;48.148;8.542;2023-05-27T08:07:29;9.07;;;4.18;;
19861;SDS011;10093;48.148;8.542;2023-05-27T08:09:55;11.10;;;3.50;;
19861;SDS011;10093;48.148;8.542;2023-05-27T08:12:21;12.05;;;4.30;;
19861;SDS011;10093;48.148;8.542;2023-05-27T08:14:47;8.10;;;3.90;;
19861;SDS011;10093;48.148;8.542;2023-05-27T08:17:13;11.13;;;4.65;;
19861;SDS011;10093;48.148;8.542;2023-05-27T08:19:39;15.38;;;4.45;;
19861;SDS011;10093;48.148;8.542;2023-05-27T08:22:05;11.18;;;3.95;;
19861;SDS011;10093;48.148;8.542;2023-05-27T08:24:33;14.90;;;4.32;;
19861;SDS011;10093;48.148;8.542;2023-05-27T08:26:59;11.50;;;4.30;;
19861;SDS011;10093;48.148;8.542;2023-05-27T08:29:25;14.52;;;4.72;;
19861;SDS011;10093;48.148;8.542;2023-05-27T08:31:52;13.80;;;4.28;;
19861;SDS011;10093;48.148;8.542;2023-05-27T08:34:18;11.15;;;4.10;;
19861;SDS011;10093;48.148;8.542;2023-05-27T08:36:44;8.73;;;3.85;;
19861;SDS011;10093;48.148;8.542;2023-05-27T08:39:10;11.30;;;4.40;;
19861;SDS011;10093;48.148;8.542;2023-05-27T08:41:36;12.30;;;4.38;;
19861;SDS011;10093;48.148;8.542;2023-05-27T08:44:02;12.02;;;4.35;;
19861;SDS011;10093;48.148;8.542;2023-05-27T08:46:28;14.23;;;4.50;;
19861;SDS011;10093;48.148;8.542;2023-05-27T08:48:55;12.65;;;4.32;;
19861;SDS011;10093;48.148;8.542;2023-05-27T08:51:20;13.25;;;4.93;;
19861;SDS011;10093;48.148;8.542;2023-05-27T08:53:47;10.52;;;4.38;;
19861;SDS011;10093;48.148;8.542;2023-05-27T08:56:14;11.48;;;4.57;;
19861;SDS011;10093;48.148;8.542;2023-05-27T08:58:42;12.93;;;4.60;;
19861;SDS011;10093;48.148;8.542;2023-05-27T09:01:09;9.90;;;4.05;;
19861;SDS011;10093;48.148;8.542;2023-05-27T09:03:34;11.88;;;4.35;;
19861;SDS011;10093;48.148;8.542;2023-05-27T09:06:00;12.35;;;4.50;;
19861;SDS011;10093;48.148;8.542;2023-05-27T09:08:29;12.93;;;5.00;;
19861;SDS011;10093;48.148;8.542;2023-05-27T09:10:55;9.98;;;4.38;;
19861;SDS011;10093;48.148;8.542;2023-05-27T09:13:27;9.07;;;4.38;;
19861;SDS011;10093;48.148;8.542;2023-05-27T09:15:58;7.05;;;4.03;;
19861;SDS011;10093;48.148;8.542;2023-05-27T09:18:26;11.90;;;4.47;;
19861;SDS011;10093;48.148;8.542;2023-05-27T09:20:55;11.60;;;4.40;;
19861;SDS011;10093;48.148;8.542;2023-05-27T09:23:21;11.05;;;4.95;;
19861;SDS011;10093;48.148;8.542;2023-05-27T09:25:47;12.43;;;5.25;;
19861;SDS011;10093;48.148;8.542;2023-05-27T09:28:19;10.57;;;5.18;;
19861;SDS011;10093;48.148;8.542;2023-05-27T09:31:02;12.18;;;5.72;;
19861;SDS011;10093;48.148;8.542;2023-05-27T09:33:30;13.07;;;5.05;;
19861;SDS011;10093;48.148;8.542;2023-05-27T09:35:57;13.32;;;4.20;;
19861;SDS011;10093;48.148;8.542;2023-05-27T09:38:34;11.85;;;4.55;;
19861;SDS011;10093;48.148;8.542;2023-05-27T09:41:01;7.70;;;3.63;;
19861;SDS011;10093;48.148;8.542;2023-05-27T09:43:27;9.07;;;4.57;;
19861;SDS011;10093;48.148;8.542;2023-05-27T09:48:27;11.52;;;4.50;;
19861;SDS011;10093;48.148;8.542;2023-05-27T09:50:55;8.18;;;4.68;;
19861;SDS011;10093;48.148;8.542;2023-05-27T09:53:22;18.77;;;4.68;;
19861;SDS011;10093;48.148;8.542;2023-05-27T09:55:49;10.65;;;4.13;;
19861;SDS011;10093;48.148;8.542;2023-05-27T09:58:17;6.93;;;4.25;;
19861;SDS011;10093;48.148;8.542;2023-05-27T10:00:44;10.32;;;4.03;;
19861;SDS011;10093;48.148;8.542;2023-05-27T10:03:10;12.80;;;4.50;;
19861;SDS011;10093;48.148;8.542;2023-05-27T10:05:37;10.10;;;4.80;;
19861;SDS011;10093;48.148;8.542;2023-05-27T10:08:04;14.27;;;5.22;;
19861;SDS011;10093;48.148;8.542;2023-05-27T10:10:30;8.95;;;4.03;;
19861;SDS011;10093;48.148;8.542;2023-05-27T10:12:57;10.48;;;4.65;;
19861;SDS011;10093;48.148;8.542;2023-05-27T10:15:28;9.15;;;4.38;;
19861;SDS011;10093;48.148;8.542;2023-05-27T10:18:01;14.55;;;4.43;;
19861;SDS011;10093;48.148;8.542;2023-05-27T10:20:37;13.60;;;4.78;;
19861;SDS011;10093;48.148;8.542;2023-05-27T10:23:14;11.77;;;5.40;;
19861;SDS011;10093;48.148;8.542;2023-05-27T10:25:45;10.07;;;5.20;;
19861;SDS011;10093;48.148;8.542;2023-05-27T10:28:25;11.32;;;4.75;;
19861;SDS011;10093;48.148;8.542;2023-05-27T10:31:06;13.73;;;4.93;;
19861;SDS011;10093;48.148;8.542;2023-05-27T10:33:36;11.52;;;4.75;;
19861;SDS011;10093;48.148;8.542;2023-05-27T10:36:14;12.20;;;4.55;;
19861;SDS011;10093;48.148;8.542;2023-05-27T10:38:41;14.30;;;5.22;;
19861;SDS011;10093;48.148;8.542;2023-05-27T10:41:07;9.77;;;5.10;;
19861;SDS011;10093;48.148;8.542;2023-05-27T10:43:34;13.90;;;4.78;;
19861;SDS011;10093;48.148;8.542;2023-05-27T10:46:06;13.75;;;4.63;;
19861;SDS011;10093;48.148;8.542;2023-05-27T10:48:33;14.85;;;5.05;;
19861;SDS011;10093;48.148;8.542;2023-05-27T10:51:00;11.68;;;4.75;;
19861;SDS011;10093;48.148;8.542;2023-05-27T10:53:27;10.73;;;4.50;;
19861;SDS011;10093;48.148;8.542;2023-05-27T10:55:53;9.52;;;4.60;;
19861;SDS011;10093;48.148;8.542;2023-05-27T10:58:22;7.53;;;4.53;;
19861;SDS011;10093;48.148;8.542;2023-05-27T11:00:48;10.02;;;5.18;;
19861;SDS011;10093;48.148;8.542;2023-05-27T11:03:15;13.38;;;5.15;;
19861;SDS011;10093;48.148;8.542;2023-05-27T11:05:47;9.18;;;4.72;;
19861;SDS011;10093;48.148;8.542;2023-05-27T11:08:22;12.05;;;4.85;;
19861;SDS011;10093;48.148;8.542;2023-05-27T11:10:47;10.70;;;4.57;;
19861;SDS011;10093;48.148;8.542;2023-05-27T11:13:13;10.48;;;4.97;;
19861;SDS011;10093;48.148;8.542;2023-05-27T11:15:41;11.95;;;5.18;;
19861;SDS011;10093;48.148;8.542;2023-05-27T11:18:07;8.75;;;4.28;;
19861;SDS011;10093;48.148;8.542;2023-05-27T11:20:37;12.10;;;5.53;;
19861;SDS011;10093;48.148;8.542;2023-05-27T11:23:03;10.27;;;4.97;;
19861;SDS011;10093;48.148;8.542;2023-05-27T11:25:39;14.10;;;5.07;;
19861;SDS011;10093;48.148;8.542;2023-05-27T11:28:12;11.82;;;5.10;;
19861;SDS011;10093;48.148;8.542;2023-05-27T11:30:39;16.27;;;5.10;;
19861;SDS011;10093;48.148;8.542;2023-05-27T11:33:05;10.88;;;4.93;;
19861;SDS011;10093;48.148;8.542;2023-05-27T11:35:31;10.88;;;5.25;;
19861;SDS011;10093;48.148;8.542;2023-05-27T11:37:58;10.60;;;5.28;;
19861;SDS011;10093;48.148;8.542;2023-05-27T11:40:26;9.10;;;4.65;;
19861;SDS011;10093;48.148;8.542;2023-05-27T11:42:51;10.50;;;4.70;;
19861;SDS011;10093;48.148;8.542;2023-05-27T11:45:18;9.57;;;4.85;;
19861;SDS011;10093;48.148;8.542;2023-05-27T11:47:47;9.68;;;4.97;;
19861;SDS011;10093;48.148;8.542;2023-05-27T11:50:16;7.35;;;4.43;;
19861;SDS011;10093;48.148;8.542;2023-05-27T11:55:35;11.00;;;5.30;;
19861;SDS011;10093;48.148;8.542;2023-05-27T11:58:03;10.38;;;5.00;;
19861;SDS011;10093;48.148;8.542;2023-05-27T12:00:29;14.50;;;5.25;;
19861;SDS011;10093;48.148;8.542;2023-05-27T12:02:55;10.55;;;4.82;;
19861;SDS011;10093;48.148;8.542;2023-05-27T12:05:21;7.13;;;4.63;;
19861;SDS011;10093;48.148;8.542;2023-05-27T12:07:46;7.70;;;5.03;;
19861;SDS011;10093;48.148;8.542;2023-05-27T12:10:14;6.88;;;5.30;;
19861;SDS011;10093;48.148;8.542;2023-05-27T12:12:40;8.93;;;4.78;;
19861;SDS011;10093;48.148;8.542;2023-05-27T12:15:09;10.25;;;5.68;;
19861;SDS011;10093;48.148;8.542;2023-05-27T12:17:34;10.70;;;4.88;;
19861;SDS011;10093;48.148;8.542;2023-05-27T12:20:00;12.32;;;5.30;;
19861;SDS011;10093;48.148;8.542;2023-05-27T12:22:26;7.50;;;4.68;;
19861;SDS011;10093;48.148;8.542;2023-05-27T12:24:51;10.55;;;4.78;;
19861;SDS011;10093;48.148;8.542;2023-05-27T12:27:18;8.57;;;5.32;;
19861;SDS011;10093;48.148;8.542;2023-05-27T12:29:45;11.02;;;4.95;;
19861;SDS011;10093;48.148;8.542;2023-05-27T12:32:11;10.65;;;4.82;;
19861;SDS011;10093;48.148;8.542;2023-05-27T12:34:37;9.50;;;4.97;;
19861;SDS011;10093;48.148;8.542;2023-05-27T12:37:02;8.43;;;4.75;;
19861;SDS011;10093;48.148;8.542;2023-05-27T12:39:28;8.18;;;4.88;;
19861;SDS011;10093;48.148;8.542;2023-05-27T12:41:54;8.95;;;5.40;;
19861;SDS011;10093;48.148;8.542;2023-05-27T12:44:19;11.05;;;5.60;;
19861;SDS011;10093;48.148;8.542;2023-05-27T12:46:45;12.65;;;5.75;;
19861;SDS011;10093;48.148;8.542;2023-05-27T12:49:11;14.70;;;5.50;;
19861;SDS011;10093;48.148;8.542;2023-05-27T12:51:36;10.43;;;5.35;;
19861;SDS011;10093;48.148;8.542;2023-05-27T12:54:03;10.75;;;5.03;;
19861;SDS011;10093;48.148;8.542;2023-05-27T12:56:29;9.52;;;5.22;;
19861;SDS011;10093;48.148;8.542;2023-05-27T12:58:54;10.32;;;5.13;;
19861;SDS011;10093;48.148;8.542;2023-05-27T13:01:20;9.95;;;5.25;;
19861;SDS011;10093;48.148;8.542;2023-05-27T13:03:46;7.68;;;5.40;;
19861;SDS011;10093;48.148;8.542;2023-05-27T13:06:12;11.93;;;5.35;;
19861;SDS011;10093;48.148;8.542;2023-05-27T13:08:37;10.55;;;5.60;;
19861;SDS011;10093;48.148;8.542;2023-05-27T13:11:03;15.98;;;5.57;;
19861;SDS011;10093;48.148;8.542;2023-05-27T13:13:29;10.27;;;5.32;;
19861;SDS011;10093;48.148;8.542;2023-05-27T13:15:54;8.90;;;5.07;;
19861;SDS011;10093;48.148;8.542;2023-05-27T13:18:20;11.27;;;5.05;;
19861;SDS011;10093;48.148;8.542;2023-05-27T13:20:46;11.65;;;5.07;;
19861;SDS011;10093;48.148;8.542;2023-05-27T13:23:12;9.30;;;5.47;;
19861;SDS011;10093;48.148;8.542;2023-05-27T13:25:37;10.20;;;5.18;;
19861;SDS011;10093;48.148;8.542;2023-05-27T13:28:03;14.02;;;4.72;;
19861;SDS011;10093;48.148;8.542;2023-05-27T13:30:29;11.98;;;5.47;;
19861;SDS011;10093;48.148;8.542;2023-05-27T13:32:55;9.70;;;5.10;;
19861;SDS011;10093;48.148;8.542;2023-05-27T13:35:21;7.45;;;5.00;;
19861;SDS011;10093;48.148;8.542;2023-05-27T13:37:46;8.15;;;4.80;;
19861;SDS011;10093;48.148;8.542;2023-05-27T13:40:12;8.02;;;5.18;;
19861;SDS011;10093;48.148;8.542;2023-05-27T13:42:38;12.18;;;5.18;;
19861;SDS011;10093;48.148;8.542;2023-05-27T13:45:05;8.50;;;5.43;;
19861;SDS011;10093;48.148;8.542;2023-05-27T13:47:31;11.85;;;5.38;;
19861;SDS011;10093;48.148;8.542;2023-05-27T13:49:57;12.02;;;4.95;;
19861;SDS011;10093;48.148;8.542;2023-05-27T13:52:22;9.23;;;5.07;;
19861;SDS011;10093;48.148;8.542;2023-05-27T13:54:48;9.43;;;5.15;;
19861;SDS011;10093;48.148;8.542;2023-05-27T13:57:14;10.35;;;5.00;;
19861;SDS011;10093;48.148;8.542;2023-05-27T13:59:39;12.77;;;5.82;;
19861;SDS011;10093;48.148;8.542;2023-05-27T14:02:05;11.73;;;5.20;;
19861;SDS011;10093;48.148;8.542;2023-05-27T14:04:33;7.85;;;5.30;;
19861;SDS011;10093;48.148;8.542;2023-05-27T14:06:58;9.45;;;5.40;;
19861;SDS011;10093;48.148;8.542;2023-05-27T14:09:24;11.88;;;5.45;;
19861;SDS011;10093;48.148;8.542;2023-05-27T14:11:50;10.18;;;5.07;;
19861;SDS011;10093;48.148;8.542;2023-05-27T14:14:15;9.52;;;5.22;;
19861;SDS011;10093;48.148;8.542;2023-05-27T14:16:41;12.20;;;4.90;;
19861;SDS011;10093;48.148;8.542;2023-05-27T14:19:07;10.27;;;5.10;;
19861;SDS011;10093;48.148;8.542;2023-05-27T14:21:32;8.05;;;4.63;;
19861;SDS011;10093;48.148;8.542;2023-05-27T14:23:58;6.63;;;4.70;;
19861;SDS011;10093;48.148;8.542;2023-05-27T14:26:24;10.43;;;4.97;;
19861;SDS011;10093;48.148;8.542;2023-05-27T14:28:51;9.30;;;5.10;;
19861;SDS011;10093;48.148;8.542;2023-05-27T14:31:16;10.15;;;5.20;;
19861;SDS011;10093;48.148;8.542;2023-05-27T14:33:42;11.02;;;5.10;;
19861;SDS011;10093;48.148;8.542;2023-05-27T14:36:08;10.35;;;5.50;;
19861;SDS011;10093;48.148;8.542;2023-05-27T14:38:33;10.75;;;5.43;;
19861;SDS011;10093;48.148;8.542;2023-05-27T14:40:59;8.68;;;5.18;;